Time;durP1;ratioP1;P1;durP2;ratioP2;P2;SDS_P1;SDS_P2;PMS_P1;PMS_P2;Temp;Humidity;BMP_temperature;BMP_pressure;BME280_temperature;BME280_humidity;BME280_pressure;Samples;Min_cycle;Max_cycle;Signal;HPM_P1;HPM_P2
2021/01/07 00:00:44;;;;;;;;;;;;;;;;;;2078643;28;7029;-67
2021/01/07 00:01:46;;;;;;;;;;;;;;;;;;2078851;28;7006;-65
2021/01/07 00:02:47;;;;;;;;;;;;;;;;;;2078145;28;7038;-66
2021/01/07 00:03:50;;;;;;;;;;;;;;;;;;2078457;28;7010;-67
2021/01/07 00:04:52;;;;;;;;;;;;;;;;;;2078394;28;7323;-67
2021/01/07 00:05:54;;;;;;;;;;;;;;;;;;2078730;28;7754;-65
2021/01/07 00:06:56;;;;;;;;;;;;;;;;;;2077834;28;7502;-66
2021/01/07 00:07:58;;;;;;;;;;;;;;;;;;2077979;28;7017;-66
2021/01/07 00:09:00;;;;;;;;;;;;;;;;;;2078678;28;7041;-65
2021/01/07 00:10:03;;;;;;;;;;;;;;;;;;2079232;28;7046;-64
2021/01/07 00:11:06;;;;;;;;;;;;;;;;;;2078773;28;7017;-64
2021/01/07 00:12:08;;;;;;;;;;;;;;;;;;2077849;28;7041;-66
2021/01/07 00:13:10;;;;;;;;;;;;;;;;;;2078005;28;7013;-65
2021/01/07 00:14:12;;;;;;;;;;;;;;;;;;2078748;28;8055;-65
2021/01/07 00:15:14;;;;;;;;;;;;;;;;;;2078625;28;7029;-66
2021/01/07 00:16:16;;;;;;;;;;;;;;;;;;2078385;28;8038;-66
2021/01/07 00:17:17;;;;;;;;;;;;;;;;;;2078220;28;7209;-66
2021/01/07 00:18:19;;;;;;;;;;;;;;;;;;2079425;28;7351;-67
2021/01/07 00:19:21;;;;;;;;;;;;;;;;;;2078737;28;7050;-67
2021/01/07 00:20:23;;;;;;;;;;;;;;;;;;2078762;28;7005;-65
2021/01/07 00:21:25;;;;;;;;;;;;;;;;;;2074139;28;10273;-65
2021/01/07 00:22:27;;;;;;;;;;;;;;;;;;2070402;28;7142;-65
2021/01/07 00:23:29;;;;;;;;;;;;;;;;;;2070512;28;7112;-63
2021/01/07 00:24:31;;;;;;;;;;;;;;;;;;2071038;28;7009;-64
2021/01/07 00:25:33;;;;;;;;;;;;;;;;;;2070074;28;7009;-65
2021/01/07 00:26:35;;;;;;;;;;;;;;;;;;2070285;28;7009;-64
2021/01/07 00:27:37;;;;;;;;;;;;;;;;;;2070075;28;7117;-65
2021/01/07 00:28:39;;;;;;;;;;;;;;;;;;2070175;28;8123;-65
2021/01/07 00:29:40;;;;;;;;;;;;;;;;;;2070325;28;7041;-64
2021/01/07 00:30:43;;;;;;;;;;;;;;;;;;2070298;28;7092;-66
2021/01/07 00:31:45;;;;;;;;;;;;;;;;;;2069815;28;7117;-65
2021/01/07 00:32:47;;;;;;;;;;;;;;;;;;2070370;28;7045;-65
2021/01/07 00:33:49;;;;;;;;;;;;;;;;;;2069979;28;8051;-65
2021/01/07 00:34:52;;;;;;;;;;;;;;;;;;2070524;28;7092;-66
2021/01/07 00:35:54;;;;;;;;;;;;;;;;;;2070624;28;7037;-65
2021/01/07 00:37:00;;;;;;;;;;;;;;;;;;2071070;28;7105;-65
2021/01/07 00:38:03;;;;;;;;;;;;;;;;;;2069985;28;7045;-67
2021/01/07 00:39:05;;;;;;;;;;;;;;;;;;2069819;28;7025;-65
2021/01/07 00:40:07;;;;;;;;;;;;;;;;;;2069682;28;7162;-64
2021/01/07 00:41:09;;;;;;;;;;;;;;;;;;2070202;28;7299;-67
2021/01/07 00:42:11;;;;;;;;;;;;;;;;;;2070041;28;7133;-66
2021/01/07 00:43:13;;;;;;;;;;;;;;;;;;2070378;28;7021;-66
2021/01/07 00:44:16;;;;;;;;;;;;;;;;;;2070351;28;7344;-66
2021/01/07 00:45:18;;;;;;;;;;;;;;;;;;2070703;28;7098;-67
2021/01/07 00:46:20;;;;;;;;;;;;;;;;;;2069896;28;8032;-65
2021/01/07 00:47:22;;;;;;;;;;;;;;;;;;2069900;28;7045;-65
2021/01/07 00:48:24;;;;;;;;;;;;;;;;;;2069299;28;7129;-67
2021/01/07 00:49:26;;;;;;;;;;;;;;;;;;2068915;28;7038;-66
2021/01/07 00:50:28;;;;;;;;;;;;;;;;;;2070094;28;8103;-66
2021/01/07 00:51:30;;;;;;;;;;;;;;;;;;2070081;28;7092;-65
2021/01/07 00:52:32;;;;;;;;;;;;;;;;;;2070199;28;7014;-67
2021/01/07 00:53:34;;;;;;;;;;;;;;;;;;2071046;28;8104;-67
2021/01/07 00:54:36;;;;;;;;;;;;;;;;;;2070399;28;7214;-66
2021/01/07 00:55:38;;;;;;;;;;;;;;;;;;2070230;28;7112;-65
2021/01/07 00:56:40;;;;;;;;;;;;;;;;;;2069733;28;7013;-66
2021/01/07 00:57:42;;;;;;;;;;;;;;;;;;2070010;28;7124;-66
2021/01/07 00:58:44;;;;;;;;;;;;;;;;;;2069982;28;7009;-66
2021/01/07 00:59:46;;;;;;;;;;;;;;;;;;2070048;28;7312;-66
2021/01/07 01:00:48;;;;;;;;;;;;;;;;;;2069808;28;7088;-65
2021/01/07 01:01:50;;;;;;;;;;;;;;;;;;2070103;28;7156;-64
2021/01/07 01:02:53;;;;;;;;;;;;;;;;;;2070538;28;7105;-67
2021/01/07 01:03:55;;;;;;;;;;;;;;;;;;2069429;28;7139;-65
2021/01/07 01:04:57;;;;;;;;;;;;;;;;;;2069079;28;7017;-64
2021/01/07 01:05:58;;;;;;;;;;;;;;;;;;2077526;28;7013;-65
2021/01/07 01:07:00;;;;;;;;;;;;;;;;;;2078899;28;7084;-67
2021/01/07 01:08:02;;;;;;;;;;;;;;;;;;2078732;28;8009;-67
2021/01/07 01:09:05;;;;;;;;;;;;;;;;;;2077893;28;7092;-67
2021/01/07 01:10:09;;;;;;;;;;;;;;;;;;2077952;28;7160;-65
2021/01/07 01:11:11;;;;;;;;;;;;;;;;;;2076987;28;7009;-66
2021/01/07 01:12:12;;;;;;;;;;;;;;;;;;2068522;28;7089;-67
2021/01/07 01:13:14;;;;;;;;;;;;;;;;;;2070183;28;7041;-67
2021/01/07 01:14:18;;;;;;;;;;;;;;;;;;2070365;28;8059;-65
2021/01/07 01:15:20;;;;;;;;;;;;;;;;;;2070109;28;7013;-65
2021/01/07 01:16:26;;;;;;;;;;;;;;;;;;2070093;28;7010;-68
2021/01/07 01:17:31;;;;;;;;;;;;;;;;;;2069666;28;7010;-65
2021/01/07 01:18:33;;;;;;;;;;;;;;;;;;2069514;28;7133;-67
2021/01/07 01:19:35;;;;;;;;;;;;;;;;;;2071557;28;7399;-65
2021/01/07 01:20:37;;;;;;;;;;;;;;;;;;2072089;28;7013;-65
2021/01/07 01:21:39;;;;;;;;;;;;;;;;;;2076936;28;7352;-67
2021/01/07 01:22:42;;;;;;;;;;;;;;;;;;2071129;28;7050;-65
2021/01/07 01:23:44;;;;;;;;;;;;;;;;;;2071583;28;7014;-67
2021/01/07 01:24:46;;;;;;;;;;;;;;;;;;2072441;28;7735;-67
2021/01/07 01:25:48;;;;;;;;;;;;;;;;;;2070335;28;7092;-65
2021/01/07 01:27:08;;;;;;;;;;;;;;;;;;2071669;28;7109;-65
2021/01/07 01:28:10;;;;;;;;;;;;;;;;;;2071849;28;7093;-67
2021/01/07 01:29:12;;;;;;;;;;;;;;;;;;2072047;28;7025;-66
2021/01/07 01:30:14;;;;;;;;;;;;;;;;;;2071369;28;7009;-66
2021/01/07 01:31:16;;;;;;;;;;;;;;;;;;2071809;28;8079;-67
2021/01/07 01:32:18;;;;;;;;;;;;;;;;;;2071511;28;8047;-66
2021/01/07 01:33:20;;;;;;;;;;;;;;;;;;2071617;28;7017;-66
2021/01/07 01:34:23;;;;;;;;;;;;;;;;;;2072078;28;7096;-64
2021/01/07 01:35:24;;;;;;;;;;;;;;;;;;2072346;28;7017;-67
2021/01/07 01:36:27;;;;;;;;;;;;;;;;;;2070874;28;7025;-65
2021/01/07 01:37:29;;;;;;;;;;;;;;;;;;2070710;28;7042;-65
2021/01/07 01:38:31;;;;;;;;;;;;;;;;;;2071668;28;7005;-67
2021/01/07 01:39:33;;;;;;;;;;;;;;;;;;2070441;28;7509;-64
2021/01/07 01:40:35;;;;;;;;;;;;;;;;;;2069863;28;7013;-65
2021/01/07 01:41:40;;;;;;;;;;;;;;;;;;2072204;28;7327;-67
2021/01/07 01:42:42;;;;;;;;;;;;;;;;;;2071078;28;7125;-66
2021/01/07 01:43:44;;;;;;;;;;;;;;;;;;2072397;28;8031;-67
2021/01/07 01:44:47;;;;;;;;;;;;;;;;;;2071414;28;7069;-65
2021/01/07 01:45:49;;;;;;;;;;;;;;;;;;2071297;28;7002;-66
2021/01/07 01:46:51;;;;;;;;;;;;;;;;;;2069894;28;7033;-66
2021/01/07 01:47:53;;;;;;;;;;;;;;;;;;2071659;28;7320;-68
2021/01/07 01:48:55;;;;;;;;;;;;;;;;;;2071482;28;7010;-67
2021/01/07 01:49:57;;;;;;;;;;;;;;;;;;2071373;28;7009;-66
2021/01/07 01:50:59;;;;;;;;;;;;;;;;;;2071132;28;7108;-65
2021/01/07 01:52:01;;;;;;;;;;;;;;;;;;2071915;28;7190;-65
2021/01/07 01:53:03;;;;;;;;;;;;;;;;;;2071505;28;7034;-66
2021/01/07 01:54:06;;;;;;;;;;;;;;;;;;2072013;28;7101;-67
2021/01/07 01:55:08;;;;;;;;;;;;;;;;;;2071336;28;7009;-64
2021/01/07 01:56:10;;;;;;;;;;;;;;;;;;2071874;28;7045;-65
2021/01/07 01:57:13;;;;;;;;;;;;;;;;;;2072559;28;7013;-67
2021/01/07 01:58:15;;;;;;;;;;;;;;;;;;2072382;28;7112;-65
2021/01/07 01:59:21;;;;;;;;;;;;;;;;;;2071552;28;7005;-66
2021/01/07 02:00:23;;;;;;;;;;;;;;;;;;2071375;28;7005;-65
2021/01/07 02:01:25;;;;;;;;;;;;;;;;;;2071170;28;7388;-66
2021/01/07 02:02:27;;;;;;;;;;;;;;;;;;2071142;28;8037;-67
2021/01/07 02:03:29;;;;;;;;;;;;;;;;;;2071574;28;7006;-64
2021/01/07 02:04:31;;;;;;;;;;;;;;;;;;2071853;28;7128;-67
2021/01/07 02:05:33;;;;;;;;;;;;;;;;;;2070249;28;7105;-65
2021/01/07 02:06:39;;;;;;;;;;;;;;;;;;2071824;28;8071;-66
2021/01/07 02:07:43;;;;;;;;;;;;;;;;;;2071495;28;7339;-67
2021/01/07 02:08:46;;;;;;;;;;;;;;;;;;2071580;28;8043;-66
2021/01/07 02:09:49;;;;;;;;;;;;;;;;;;2071455;28;7009;-67
2021/01/07 02:10:51;;;;;;;;;;;;;;;;;;2078509;28;7244;-67
2021/01/07 02:11:53;;;;;;;;;;;;;;;;;;2078004;28;7100;-67
2021/01/07 02:12:55;;;;;;;;;;;;;;;;;;2071890;28;7092;-68
2021/01/07 02:13:57;;;;;;;;;;;;;;;;;;2071478;28;7100;-66
2021/01/07 02:14:59;;;;;;;;;;;;;;;;;;2072045;28;7092;-66
2021/01/07 02:16:01;;;;;;;;;;;;;;;;;;2071356;28;7010;-66
2021/01/07 02:17:03;;;;;;;;;;;;;;;;;;2071625;28;7062;-65
2021/01/07 02:18:05;;;;;;;;;;;;;;;;;;2071260;28;7014;-64
2021/01/07 02:19:08;;;;;;;;;;;;;;;;;;2070498;28;7308;-67
2021/01/07 02:20:12;;;;;;;;;;;;;;;;;;2077930;28;7049;-66
2021/01/07 02:21:14;;;;;;;;;;;;;;;;;;2073214;28;7089;-68
2021/01/07 02:22:16;;;;;;;;;;;;;;;;;;2079174;28;7009;-66
2021/01/07 02:23:18;;;;;;;;;;;;;;;;;;2079208;28;7105;-65
2021/01/07 02:24:20;;;;;;;;;;;;;;;;;;2079354;28;8038;-65
2021/01/07 02:25:22;;;;;;;;;;;;;;;;;;2079279;28;7289;-64
2021/01/07 02:26:24;;;;;;;;;;;;;;;;;;2079430;28;7013;-66
2021/01/07 02:27:26;;;;;;;;;;;;;;;;;;2079612;28;8029;-65
2021/01/07 02:28:28;;;;;;;;;;;;;;;;;;2079929;28;7005;-65
2021/01/07 02:29:31;;;;;;;;;;;;;;;;;;2079476;28;7033;-64
2021/01/07 02:30:34;;;;;;;;;;;;;;;;;;2077915;28;7134;-66
2021/01/07 02:31:36;;;;;;;;;;;;;;;;;;2079176;28;7063;-64
2021/01/07 02:32:37;;;;;;;;;;;;;;;;;;2079361;28;7364;-65
2021/01/07 02:33:39;;;;;;;;;;;;;;;;;;2079031;28;7100;-65
2021/01/07 02:34:41;;;;;;;;;;;;;;;;;;2078784;28;8050;-66
2021/01/07 02:35:43;;;;;;;;;;;;;;;;;;2079502;28;7013;-67
2021/01/07 02:36:45;;;;;;;;;;;;;;;;;;2079702;28;7112;-65
2021/01/07 02:37:47;;;;;;;;;;;;;;;;;;2072088;28;7009;-66
2021/01/07 02:38:50;;;;;;;;;;;;;;;;;;2071475;28;7138;-65
2021/01/07 02:39:51;;;;;;;;;;;;;;;;;;2070224;28;7014;-65
2021/01/07 02:40:53;;;;;;;;;;;;;;;;;;2069503;28;7014;-67
2021/01/07 02:41:56;;;;;;;;;;;;;;;;;;2072221;28;7088;-67
2021/01/07 02:42:58;;;;;;;;;;;;;;;;;;2071131;28;7061;-66
2021/01/07 02:44:00;;;;;;;;;;;;;;;;;;2071317;28;7009;-66
2021/01/07 02:45:04;;;;;;;;;;;;;;;;;;2070715;28;7127;-67
2021/01/07 02:46:06;;;;;;;;;;;;;;;;;;2070917;28;7088;-66
2021/01/07 02:47:08;;;;;;;;;;;;;;;;;;2071124;28;7009;-64
2021/01/07 02:48:10;;;;;;;;;;;;;;;;;;2071023;28;7054;-65
2021/01/07 02:49:12;;;;;;;;;;;;;;;;;;2070752;28;7100;-63
2021/01/07 02:50:14;;;;;;;;;;;;;;;;;;2071127;28;7010;-65
2021/01/07 02:51:15;;;;;;;;;;;;;;;;;;2071035;28;7308;-65
2021/01/07 02:52:17;;;;;;;;;;;;;;;;;;2070819;28;7113;-67
2021/01/07 02:53:19;;;;;;;;;;;;;;;;;;2070783;28;7088;-68
2021/01/07 02:54:21;;;;;;;;;;;;;;;;;;2071618;28;8041;-67
2021/01/07 02:55:23;;;;;;;;;;;;;;;;;;2079547;28;7013;-65
2021/01/07 02:56:25;;;;;;;;;;;;;;;;;;2072099;28;7049;-66
2021/01/07 02:57:27;;;;;;;;;;;;;;;;;;2070215;28;7021;-66
2021/01/07 02:58:29;;;;;;;;;;;;;;;;;;2071345;28;7054;-66
2021/01/07 02:59:31;;;;;;;;;;;;;;;;;;2070754;28;7155;-67
2021/01/07 03:00:33;;;;;;;;;;;;;;;;;;2070805;28;7116;-67
2021/01/07 03:01:35;;;;;;;;;;;;;;;;;;2070673;28;7138;-67
2021/01/07 03:02:37;;;;;;;;;;;;;;;;;;2070799;28;7109;-65
2021/01/07 03:03:39;;;;;;;;;;;;;;;;;;2071107;28;8110;-67
2021/01/07 03:04:40;;;;;;;;;;;;;;;;;;2071161;28;7010;-64
2021/01/07 03:05:42;;;;;;;;;;;;;;;;;;2070587;28;7092;-65
2021/01/07 03:06:44;;;;;;;;;;;;;;;;;;2071424;28;7045;-67
2021/01/07 03:07:46;;;;;;;;;;;;;;;;;;2070042;28;7013;-66
2021/01/07 03:08:49;;;;;;;;;;;;;;;;;;2071176;28;7096;-65
2021/01/07 03:09:50;;;;;;;;;;;;;;;;;;2071298;28;7017;-64
2021/01/07 03:10:52;;;;;;;;;;;;;;;;;;2069861;28;8038;-67
2021/01/07 03:11:54;;;;;;;;;;;;;;;;;;2075648;28;7096;-64
2021/01/07 03:12:56;;;;;;;;;;;;;;;;;;2078797;28;7049;-68
2021/01/07 03:13:58;;;;;;;;;;;;;;;;;;2078571;28;7017;-64
2021/01/07 03:15:00;;;;;;;;;;;;;;;;;;2078724;28;7572;-68
2021/01/07 03:16:02;;;;;;;;;;;;;;;;;;2078572;28;7092;-67
2021/01/07 03:17:04;;;;;;;;;;;;;;;;;;2078884;28;7033;-65
2021/01/07 03:18:06;;;;;;;;;;;;;;;;;;2078601;28;7100;-67
2021/01/07 03:19:08;;;;;;;;;;;;;;;;;;2078829;28;7112;-65
2021/01/07 03:20:12;;;;;;;;;;;;;;;;;;2078403;28;7010;-66
2021/01/07 03:21:14;;;;;;;;;;;;;;;;;;2075785;28;7113;-66
2021/01/07 03:22:16;;;;;;;;;;;;;;;;;;2070506;28;7089;-66
2021/01/07 03:23:18;;;;;;;;;;;;;;;;;;2071011;28;8043;-66
2021/01/07 03:24:20;;;;;;;;;;;;;;;;;;2071325;28;7105;-66
2021/01/07 03:25:22;;;;;;;;;;;;;;;;;;2077195;28;7046;-66
2021/01/07 03:26:24;;;;;;;;;;;;;;;;;;2071391;28;7009;-67
2021/01/07 03:27:25;;;;;;;;;;;;;;;;;;2070203;28;7316;-66
2021/01/07 03:28:27;;;;;;;;;;;;;;;;;;2069053;28;7092;-65
2021/01/07 03:29:29;;;;;;;;;;;;;;;;;;2070952;28;7009;-65
2021/01/07 03:30:31;;;;;;;;;;;;;;;;;;2070339;28;7109;-65
2021/01/07 03:31:33;;;;;;;;;;;;;;;;;;2070974;28;7009;-65
2021/01/07 03:32:35;;;;;;;;;;;;;;;;;;2070488;28;7009;-66
2021/01/07 03:33:37;;;;;;;;;;;;;;;;;;2070453;28;7054;-66
2021/01/07 03:34:39;;;;;;;;;;;;;;;;;;2070933;28;7136;-67
2021/01/07 03:35:41;;;;;;;;;;;;;;;;;;2070760;28;7041;-65
2021/01/07 03:36:43;;;;;;;;;;;;;;;;;;2070843;28;7001;-67
2021/01/07 03:37:45;;;;;;;;;;;;;;;;;;2070849;28;7100;-65
2021/01/07 03:38:47;;;;;;;;;;;;;;;;;;2071068;28;7253;-65
2021/01/07 03:39:50;;;;;;;;;;;;;;;;;;2070749;28;7332;-65
2021/01/07 03:40:52;;;;;;;;;;;;;;;;;;2070695;28;7025;-66
2021/01/07 03:41:54;;;;;;;;;;;;;;;;;;2071256;28;7078;-64
2021/01/07 03:42:56;;;;;;;;;;;;;;;;;;2071215;28;8066;-65
2021/01/07 03:43:58;;;;;;;;;;;;;;;;;;2070113;28;7014;-67
2021/01/07 03:45:00;;;;;;;;;;;;;;;;;;2078905;28;7077;-68
2021/01/07 03:46:01;;;;;;;;;;;;;;;;;;2078878;28;7849;-65
2021/01/07 03:47:04;;;;;;;;;;;;;;;;;;2078688;28;7013;-63
2021/01/07 03:48:06;;;;;;;;;;;;;;;;;;2076652;28;7314;-67
2021/01/07 03:49:08;;;;;;;;;;;;;;;;;;2070371;28;7092;-64
2021/01/07 03:50:11;;;;;;;;;;;;;;;;;;2070520;28;7101;-66
2021/01/07 03:51:13;;;;;;;;;;;;;;;;;;2077886;28;8047;-65
2021/01/07 03:52:15;;;;;;;;;;;;;;;;;;2078287;28;7041;-65
2021/01/07 03:53:17;;;;;;;;;;;;;;;;;;2069934;28;7156;-65
2021/01/07 03:54:18;;;;;;;;;;;;;;;;;;2070705;28;7112;-66
2021/01/07 03:55:20;;;;;;;;;;;;;;;;;;2070410;28;7013;-65
2021/01/07 03:56:22;;;;;;;;;;;;;;;;;;2070494;28;7013;-67
2021/01/07 03:57:24;;;;;;;;;;;;;;;;;;2070504;28;7313;-65
2021/01/07 03:58:26;;;;;;;;;;;;;;;;;;2070601;28;7140;-64
2021/01/07 03:59:28;;;;;;;;;;;;;;;;;;2069803;28;8067;-66
2021/01/07 04:00:31;;;;;;;;;;;;;;;;;;2070925;28;8340;-65
2021/01/07 04:01:33;;;;;;;;;;;;;;;;;;2069567;28;8442;-67
2021/01/07 04:02:35;;;;;;;;;;;;;;;;;;2069417;28;7128;-67
2021/01/07 04:03:37;;;;;;;;;;;;;;;;;;2069582;28;8128;-64
2021/01/07 04:04:39;;;;;;;;;;;;;;;;;;2070398;28;7013;-66
2021/01/07 04:05:40;;;;;;;;;;;;;;;;;;2071077;28;7445;-66
2021/01/07 04:06:42;;;;;;;;;;;;;;;;;;2071056;28;7029;-67
2021/01/07 04:07:44;;;;;;;;;;;;;;;;;;2070114;28;8003;-65
2021/01/07 04:08:46;;;;;;;;;;;;;;;;;;2070653;28;7131;-66
2021/01/07 04:09:48;;;;;;;;;;;;;;;;;;2070274;28;7085;-65
2021/01/07 04:10:51;;;;;;;;;;;;;;;;;;2070259;28;7099;-64
2021/01/07 04:11:52;;;;;;;;;;;;;;;;;;2069892;28;7009;-66
2021/01/07 04:12:54;;;;;;;;;;;;;;;;;;2070366;28;7182;-66
2021/01/07 04:13:56;;;;;;;;;;;;;;;;;;2070908;28;7009;-66
2021/01/07 04:14:58;;;;;;;;;;;;;;;;;;2070487;28;7124;-68
2021/01/07 04:16:00;;;;;;;;;;;;;;;;;;2070775;28;7009;-68
2021/01/07 04:17:02;;;;;;;;;;;;;;;;;;2069524;28;7125;-67
2021/01/07 04:18:04;;;;;;;;;;;;;;;;;;2070337;28;7113;-66
2021/01/07 04:19:06;;;;;;;;;;;;;;;;;;2069217;28;7029;-68
2021/01/07 04:20:09;;;;;;;;;;;;;;;;;;2070876;28;7113;-65
2021/01/07 04:21:11;;;;;;;;;;;;;;;;;;2072643;28;7041;-65
2021/01/07 04:22:13;;;;;;;;;;;;;;;;;;2078133;28;7109;-67
2021/01/07 04:23:15;;;;;;;;;;;;;;;;;;2078212;28;7009;-65
2021/01/07 04:24:17;;;;;;;;;;;;;;;;;;2078303;28;7029;-68
2021/01/07 04:25:19;;;;;;;;;;;;;;;;;;2078159;28;8102;-66
2021/01/07 04:26:23;;;;;;;;;;;;;;;;;;2078212;28;7100;-64
2021/01/07 04:27:25;;;;;;;;;;;;;;;;;;2078660;28;7013;-65
2021/01/07 04:28:26;;;;;;;;;;;;;;;;;;2078512;28;7039;-68
2021/01/07 04:29:29;;;;;;;;;;;;;;;;;;2077990;28;7088;-64
2021/01/07 04:30:31;;;;;;;;;;;;;;;;;;2078068;28;7009;-68
2021/01/07 04:31:33;;;;;;;;;;;;;;;;;;2078421;28;7108;-67
2021/01/07 04:32:34;;;;;;;;;;;;;;;;;;2078438;28;7045;-67
2021/01/07 04:33:36;;;;;;;;;;;;;;;;;;2069483;28;7010;-65
2021/01/07 04:34:38;;;;;;;;;;;;;;;;;;2070968;28;7018;-65
2021/01/07 04:35:41;;;;;;;;;;;;;;;;;;2069028;28;7155;-66
2021/01/07 04:36:42;;;;;;;;;;;;;;;;;;2078646;28;7064;-65
2021/01/07 04:37:44;;;;;;;;;;;;;;;;;;2078192;28;7088;-67
2021/01/07 04:38:47;;;;;;;;;;;;;;;;;;2078525;28;7148;-66
2021/01/07 04:39:49;;;;;;;;;;;;;;;;;;2077980;28;7099;-66
2021/01/07 04:40:51;;;;;;;;;;;;;;;;;;2078251;28;7033;-65
2021/01/07 04:41:53;;;;;;;;;;;;;;;;;;2077879;28;8027;-68
2021/01/07 04:42:55;;;;;;;;;;;;;;;;;;2077926;28;7006;-68
2021/01/07 04:43:58;;;;;;;;;;;;;;;;;;2078380;28;7024;-67
2021/01/07 04:45:01;;;;;;;;;;;;;;;;;;2078182;28;7042;-68
2021/01/07 04:46:03;;;;;;;;;;;;;;;;;;2078328;28;7005;-66
2021/01/07 04:47:05;;;;;;;;;;;;;;;;;;2078254;28;7009;-67
2021/01/07 04:48:08;;;;;;;;;;;;;;;;;;2078326;28;7092;-67
2021/01/07 04:49:10;;;;;;;;;;;;;;;;;;2078823;28;7367;-67
2021/01/07 04:50:13;;;;;;;;;;;;;;;;;;2078412;28;7107;-66
2021/01/07 04:51:15;;;;;;;;;;;;;;;;;;2078044;28;8047;-65
2021/01/07 04:52:17;;;;;;;;;;;;;;;;;;2078059;28;7109;-65
2021/01/07 04:53:20;;;;;;;;;;;;;;;;;;2077786;28;8015;-67
2021/01/07 04:54:22;;;;;;;;;;;;;;;;;;2078058;28;7042;-67
2021/01/07 04:55:24;;;;;;;;;;;;;;;;;;2078054;28;7014;-67
2021/01/07 04:56:26;;;;;;;;;;;;;;;;;;2078020;28;7088;-66
2021/01/07 04:57:28;;;;;;;;;;;;;;;;;;2078653;28;7046;-67
2021/01/07 04:58:30;;;;;;;;;;;;;;;;;;2069386;28;7049;-66
2021/01/07 04:59:32;;;;;;;;;;;;;;;;;;2070821;28;7105;-65
2021/01/07 05:00:34;;;;;;;;;;;;;;;;;;2068882;28;7036;-65
2021/01/07 05:01:37;;;;;;;;;;;;;;;;;;2078711;28;7818;-65
2021/01/07 05:02:39;;;;;;;;;;;;;;;;;;2078439;28;7096;-66
2021/01/07 05:03:44;;;;;;;;;;;;;;;;;;2078895;28;7485;-66
2021/01/07 05:04:49;;;;;;;;;;;;;;;;;;2078947;28;7021;-67
2021/01/07 05:05:51;;;;;;;;;;;;;;;;;;2078428;28;7068;-66
2021/01/07 05:06:53;;;;;;;;;;;;;;;;;;2078214;28;7045;-65
2021/01/07 05:07:55;;;;;;;;;;;;;;;;;;2078319;28;7005;-66
2021/01/07 05:09:01;;;;;;;;;;;;;;;;;;2078507;28;7010;-66
2021/01/07 05:10:05;;;;;;;;;;;;;;;;;;2078508;28;7009;-65
2021/01/07 05:11:08;;;;;;;;;;;;;;;;;;2077375;28;7009;-66
2021/01/07 05:12:11;;;;;;;;;;;;;;;;;;2070066;28;7029;-65
2021/01/07 05:13:13;;;;;;;;;;;;;;;;;;2069715;28;7009;-68
2021/01/07 05:14:15;;;;;;;;;;;;;;;;;;2069926;28;7127;-65
2021/01/07 05:15:17;;;;;;;;;;;;;;;;;;2070065;28;8038;-67
2021/01/07 05:16:20;;;;;;;;;;;;;;;;;;2070079;28;7025;-66
2021/01/07 05:17:22;;;;;;;;;;;;;;;;;;2070345;28;7029;-65
2021/01/07 05:18:25;;;;;;;;;;;;;;;;;;2069980;28;7125;-65
2021/01/07 05:19:27;;;;;;;;;;;;;;;;;;2069870;28;7033;-66
2021/01/07 05:20:28;;;;;;;;;;;;;;;;;;2070742;28;7009;-65
2021/01/07 05:21:32;;;;;;;;;;;;;;;;;;2075310;28;7088;-68
2021/01/07 05:22:35;;;;;;;;;;;;;;;;;;2077936;28;7206;-67
2021/01/07 05:23:36;;;;;;;;;;;;;;;;;;2077924;28;8021;-66
2021/01/07 05:24:39;;;;;;;;;;;;;;;;;;2078399;28;7197;-67
2021/01/07 05:25:42;;;;;;;;;;;;;;;;;;2078601;28;7009;-68
2021/01/07 05:26:44;;;;;;;;;;;;;;;;;;2078607;28;7121;-64
2021/01/07 05:27:46;;;;;;;;;;;;;;;;;;2069470;28;7037;-67
2021/01/07 05:28:49;;;;;;;;;;;;;;;;;;2068923;28;7101;-65
2021/01/07 05:29:51;;;;;;;;;;;;;;;;;;2070105;28;7018;-65
2021/01/07 05:30:53;;;;;;;;;;;;;;;;;;2070137;28;7037;-64
2021/01/07 05:31:55;;;;;;;;;;;;;;;;;;2068511;28;7010;-67
2021/01/07 05:33:17;;;;;;;;;;;;;;;;;;2074982;28;8070;-68
2021/01/07 05:34:19;;;;;;;;;;;;;;;;;;2077995;28;7113;-66
2021/01/07 05:35:21;;;;;;;;;;;;;;;;;;2078073;28;8098;-67
2021/01/07 05:36:23;;;;;;;;;;;;;;;;;;2077930;28;7444;-65
2021/01/07 05:37:25;;;;;;;;;;;;;;;;;;2078062;28;7042;-66
2021/01/07 05:38:37;;;;;;;;;;;;;;;;;;2078159;28;7017;-67
2021/01/07 05:39:39;;;;;;;;;;;;;;;;;;2078193;28;7005;-66
2021/01/07 05:40:41;;;;;;;;;;;;;;;;;;2078283;28;7009;-64
2021/01/07 05:41:43;;;;;;;;;;;;;;;;;;2078564;28;8091;-66
2021/01/07 05:42:46;;;;;;;;;;;;;;;;;;2078820;28;7113;-67
2021/01/07 05:44:01;;;;;;;;;;;;;;;;;;2078485;28;7105;-66
2021/01/07 05:45:09;;;;;;;;;;;;;;;;;;2078778;28;7340;-67
2021/01/07 05:46:12;;;;;;;;;;;;;;;;;;2078301;28;7109;-64
2021/01/07 05:47:30;;;;;;;;;;;;;;;;;;2078395;28;7009;-66
2021/01/07 05:48:32;;;;;;;;;;;;;;;;;;2078551;28;7088;-68
2021/01/07 05:49:37;;;;;;;;;;;;;;;;;;2069620;28;7088;-67
2021/01/07 05:50:40;;;;;;;;;;;;;;;;;;2070275;28;7088;-66
2021/01/07 05:51:45;;;;;;;;;;;;;;;;;;2071127;28;7092;-65
2021/01/07 05:52:48;;;;;;;;;;;;;;;;;;2070323;28;7050;-64
2021/01/07 05:53:52;;;;;;;;;;;;;;;;;;2070206;28;7105;-65
2021/01/07 05:54:54;;;;;;;;;;;;;;;;;;2069942;28;7106;-68
2021/01/07 05:55:57;;;;;;;;;;;;;;;;;;2069993;28;7316;-64
2021/01/07 05:57:03;;;;;;;;;;;;;;;;;;2070009;28;7097;-64
2021/01/07 05:58:05;;;;;;;;;;;;;;;;;;2070054;28;8050;-66
2021/01/07 05:59:08;;;;;;;;;;;;;;;;;;2070331;28;8007;-65
2021/01/07 06:00:13;;;;;;;;;;;;;;;;;;2070147;28;7487;-66
2021/01/07 06:01:16;;;;;;;;;;;;;;;;;;2070848;28;7075;-68
2021/01/07 06:02:18;;;;;;;;;;;;;;;;;;2070389;28;7009;-65
2021/01/07 06:03:21;;;;;;;;;;;;;;;;;;2070167;28;7005;-67
2021/01/07 06:04:23;;;;;;;;;;;;;;;;;;2070403;28;7009;-66
2021/01/07 06:05:26;;;;;;;;;;;;;;;;;;2070411;28;7975;-68
2021/01/07 06:06:29;;;;;;;;;;;;;;;;;;2071922;28;7006;-65
2021/01/07 06:07:32;;;;;;;;;;;;;;;;;;2071424;28;7097;-67
2021/01/07 06:08:35;;;;;;;;;;;;;;;;;;2073598;28;7014;-67
2021/01/07 06:09:39;;;;;;;;;;;;;;;;;;2080002;28;7042;-66
2021/01/07 06:10:42;;;;;;;;;;;;;;;;;;2079933;28;7068;-66
2021/01/07 06:11:44;;;;;;;;;;;;;;;;;;2074315;28;7092;-67
2021/01/07 06:12:46;;;;;;;;;;;;;;;;;;2071467;28;7116;-67
2021/01/07 06:13:49;;;;;;;;;;;;;;;;;;2071786;28;7006;-64
2021/01/07 06:14:51;;;;;;;;;;;;;;;;;;2071703;28;7013;-67
2021/01/07 06:15:53;;;;;;;;;;;;;;;;;;2071469;28;8067;-67
2021/01/07 06:16:56;;;;;;;;;;;;;;;;;;2071522;28;7009;-68
2021/01/07 06:17:59;;;;;;;;;;;;;;;;;;2071394;28;7088;-67
2021/01/07 06:19:20;;;;;;;;;;;;;;;;;;2071418;28;7005;-67
2021/01/07 06:20:22;;;;;;;;;;;;;;;;;;2070361;28;8094;-67
2021/01/07 06:21:27;;;;;;;;;;;;;;;;;;2075270;28;7494;-65
2021/01/07 06:22:29;;;;;;;;;;;;;;;;;;2079755;28;7056;-66
2021/01/07 06:23:31;;;;;;;;;;;;;;;;;;2080129;28;7038;-68
2021/01/07 06:24:35;;;;;;;;;;;;;;;;;;2079200;28;7741;-66
2021/01/07 06:25:37;;;;;;;;;;;;;;;;;;2079712;28;7092;-67
2021/01/07 06:26:44;;;;;;;;;;;;;;;;;;2092835;28;7066;-67
2021/01/07 06:27:48;;;;;;;;;;;;;;;;;;2084944;28;8110;-65
2021/01/07 06:28:52;;;;;;;;;;;;;;;;;;2071144;28;7328;-64
2021/01/07 06:29:56;;;;;;;;;;;;;;;;;;2071223;28;7013;-67
2021/01/07 06:31:00;;;;;;;;;;;;;;;;;;2071341;28;7138;-65
2021/01/07 06:32:02;;;;;;;;;;;;;;;;;;2070754;28;7096;-65
2021/01/07 06:33:08;;;;;;;;;;;;;;;;;;2071836;28;7013;-67
2021/01/07 06:34:12;;;;;;;;;;;;;;;;;;2071880;28;7042;-64
2021/01/07 06:35:15;;;;;;;;;;;;;;;;;;2071395;28;7042;-65
2021/01/07 06:36:17;;;;;;;;;;;;;;;;;;2070193;28;7018;-65
2021/01/07 06:37:38;;;;;;;;;;;;;;;;;;2071543;28;7100;-67
2021/01/07 06:38:50;;;;;;;;;;;;;;;;;;2071757;28;7053;-67
2021/01/07 06:39:56;;;;;;;;;;;;;;;;;;2071359;28;7009;-67
2021/01/07 06:41:00;;;;;;;;;;;;;;;;;;2071726;28;7009;-65
2021/01/07 06:42:02;;;;;;;;;;;;;;;;;;2071199;28;7092;-68
2021/01/07 06:43:11;;;;;;;;;;;;;;;;;;2071692;28;7033;-66
2021/01/07 06:44:13;;;;;;;;;;;;;;;;;;2072085;28;7117;-64
2021/01/07 06:45:15;;;;;;;;;;;;;;;;;;2070412;28;9178;-64
2021/01/07 06:46:35;;;;;;;;;;;;;;;;;;2079573;28;7096;-65
2021/01/07 06:47:38;;;;;;;;;;;;;;;;;;2079775;28;8135;-68
2021/01/07 06:48:44;;;;;;;;;;;;;;;;;;2079856;28;7425;-65
2021/01/07 06:49:50;;;;;;;;;;;;;;;;;;2079755;28;7093;-68
2021/01/07 06:50:54;;;;;;;;;;;;;;;;;;2070323;28;7013;-68
2021/01/07 06:51:58;;;;;;;;;;;;;;;;;;2070669;28;7009;-66
2021/01/07 06:53:02;;;;;;;;;;;;;;;;;;2071232;28;7025;-65
2021/01/07 06:54:05;;;;;;;;;;;;;;;;;;2071254;28;7013;-65
2021/01/07 06:55:14;;;;;;;;;;;;;;;;;;2070954;28;7009;-67
2021/01/07 06:56:17;;;;;;;;;;;;;;;;;;2070870;28;7108;-64
2021/01/07 06:57:20;;;;;;;;;;;;;;;;;;2070970;28;7089;-68
2021/01/07 06:58:23;;;;;;;;;;;;;;;;;;2071474;28;7013;-67
2021/01/07 06:59:25;;;;;;;;;;;;;;;;;;2070936;28;7026;-66
2021/01/07 07:00:27;;;;;;;;;;;;;;;;;;2070953;28;7009;-66
2021/01/07 07:01:29;;;;;;;;;;;;;;;;;;2071110;28;7042;-66
2021/01/07 07:02:31;;;;;;;;;;;;;;;;;;2071328;28;7021;-67
2021/01/07 07:03:39;;;;;;;;;;;;;;;;;;2071193;28;7009;-64
2021/01/07 07:04:46;;;;;;;;;;;;;;;;;;2069946;28;7038;-64
2021/01/07 07:05:54;;;;;;;;;;;;;;;;;;2071551;28;8019;-67
2021/01/07 07:07:00;;;;;;;;;;;;;;;;;;2071111;28;7025;-65
2021/01/07 07:08:05;;;;;;;;;;;;;;;;;;2071457;28;7025;-64
2021/01/07 07:09:15;;;;;;;;;;;;;;;;;;2071313;28;8008;-67
2021/01/07 07:10:17;;;;;;;;;;;;;;;;;;2078368;28;7045;-68
2021/01/07 07:11:30;;;;;;;;;;;;;;;;;;2077709;28;8094;-65
2021/01/07 07:12:32;;;;;;;;;;;;;;;;;;2075067;28;7138;-65
2021/01/07 07:13:39;;;;;;;;;;;;;;;;;;2071624;28;7040;-66
2021/01/07 07:14:50;;;;;;;;;;;;;;;;;;2071461;28;7372;-66
2021/01/07 07:15:53;;;;;;;;;;;;;;;;;;2071159;28;7033;-67
2021/01/07 07:16:56;;;;;;;;;;;;;;;;;;2070448;28;7010;-65